createdAt,value
2023-05-05T00:00:48.538Z,-1.35
2023-05-05T00:01:48.562Z,-1.35
2023-05-05T00:02:48.648Z,-1.35
2023-05-05T00:03:48.551Z,-1.33
2023-05-05T00:04:48.615Z,-1.27
2023-05-05T00:05:48.510Z,-1.28
2023-05-05T00:06:48.471Z,-1.28
2023-05-05T00:07:48.469Z,-1.28
2023-05-05T00:08:48.449Z,-1.31
2023-05-05T00:09:48.446Z,-1.33
2023-05-05T00:10:48.441Z,-1.33
2023-05-05T00:11:48.554Z,-1.35
2023-05-05T00:12:48.420Z,-1.38
2023-05-05T00:13:48.427Z,-1.41
2023-05-05T00:14:48.381Z,-1.42
2023-05-05T00:15:48.378Z,-1.43
2023-05-05T00:16:48.390Z,-1.43
2023-05-05T00:17:48.415Z,-1.45
2023-05-05T00:18:48.341Z,-1.45
2023-05-05T00:19:48.339Z,-1.49
2023-05-05T00:20:48.342Z,-1.57
2023-05-05T00:21:48.317Z,-1.62
2023-05-05T00:22:48.317Z,-1.64
2023-05-05T00:23:48.343Z,-1.67
2023-05-05T00:24:48.288Z,-1.69
2023-05-05T00:25:48.286Z,-1.67
2023-05-05T00:26:48.287Z,-1.67
2023-05-05T00:27:48.260Z,-1.70
2023-05-05T00:28:48.247Z,-1.75
2023-05-05T00:29:48.268Z,-1.90
2023-05-05T00:30:48.264Z,-1.96
2023-05-05T00:31:48.218Z,-2.05
2023-05-05T00:32:48.376Z,-2.05
2023-05-05T00:33:48.214Z,-2.14
2023-05-05T00:34:48.225Z,-2.26
2023-05-05T00:35:48.966Z,-2.40
2023-05-05T00:36:48.185Z,-2.61
2023-05-05T00:37:48.175Z,-2.75
2023-05-05T00:38:48.159Z,-2.82
2023-05-05T00:39:48.159Z,-2.85
2023-05-05T00:40:48.154Z,-2.85
2023-05-05T00:41:48.156Z,-2.79
2023-05-05T00:42:48.152Z,-2.75
2023-05-05T00:43:48.111Z,-2.71
2023-05-05T00:44:48.113Z,-2.64
2023-05-05T00:45:48.219Z,-2.57
2023-05-05T00:46:48.143Z,-2.39
2023-05-05T00:47:48.135Z,-2.23
2023-05-05T00:48:48.068Z,-2.16
2023-05-05T00:49:48.056Z,-2.13
2023-05-05T00:50:48.043Z,-2.11
2023-05-05T00:51:48.042Z,-2.11
2023-05-05T00:52:48.021Z,-2.13
2023-05-05T00:53:48.061Z,-2.14
2023-05-05T00:54:48.132Z,-2.14
2023-05-05T00:55:47.993Z,-2.14
2023-05-05T00:56:47.980Z,-2.11
2023-05-05T00:57:47.971Z,-2.08
2023-05-05T00:58:47.960Z,-2.08
2023-05-05T00:59:47.998Z,-2.06
2023-05-05T01:00:47.938Z,-2.05
2023-05-05T01:01:47.978Z,-2.06
2023-05-05T01:02:48.006Z,-2.06
2023-05-05T01:03:48.036Z,-2.05
2023-05-05T01:04:47.894Z,-2.06
2023-05-05T01:05:47.946Z,-2.06
2023-05-05T01:06:47.875Z,-2.02
2023-05-05T01:07:47.877Z,-1.95
2023-05-05T01:08:47.863Z,-1.92
2023-05-05T01:09:47.856Z,-1.92
2023-05-05T01:10:47.838Z,-1.88
2023-05-05T01:11:47.875Z,-1.88
2023-05-05T01:12:47.840Z,-1.88
2023-05-05T01:13:47.821Z,-1.88
2023-05-05T01:14:47.795Z,-1.85
2023-05-05T01:15:47.807Z,-1.84
2023-05-05T01:16:47.792Z,-1.81
2023-05-05T01:17:47.826Z,-1.80
2023-05-05T01:18:47.773Z,-1.77
2023-05-05T01:19:47.763Z,-1.75
2023-05-05T01:20:47.753Z,-1.74
2023-05-05T01:21:47.742Z,-1.72
2023-05-05T01:22:47.727Z,-1.69
2023-05-05T01:23:47.747Z,-1.70
2023-05-05T01:24:47.702Z,-1.72
2023-05-05T01:25:47.697Z,-1.74
2023-05-05T01:26:47.714Z,-1.75
2023-05-05T01:27:47.692Z,-1.77
2023-05-05T01:28:47.672Z,-1.78
2023-05-05T01:29:47.694Z,-1.78
2023-05-05T01:30:47.648Z,-1.81
2023-05-05T01:31:47.673Z,-1.84
2023-05-05T01:32:47.636Z,-1.88
2023-05-05T01:33:47.715Z,-1.87
2023-05-05T01:34:47.597Z,-1.87
2023-05-05T01:35:47.626Z,-1.87
2023-05-05T01:36:47.588Z,-1.85
2023-05-05T01:37:47.568Z,-1.85
2023-05-05T01:38:47.564Z,-1.82
2023-05-05T01:39:47.562Z,-1.82
2023-05-05T01:40:47.537Z,-1.82
2023-05-05T01:41:47.563Z,-1.80
2023-05-05T01:42:47.581Z,-1.80
2023-05-05T01:43:47.516Z,-1.78
2023-05-05T01:44:47.520Z,-1.77
2023-05-05T01:45:47.521Z,-1.80
2023-05-05T01:46:47.479Z,-1.81
2023-05-05T01:47:47.634Z,-1.80
2023-05-05T01:48:47.462Z,-1.85
2023-05-05T01:49:47.501Z,-1.87
2023-05-05T01:50:47.442Z,-1.85
2023-05-05T01:51:47.440Z,-1.87
2023-05-05T01:52:47.431Z,-1.90
2023-05-05T01:53:47.446Z,-1.87
2023-05-05T01:54:47.404Z,-1.90
2023-05-05T01:55:47.405Z,-1.88
2023-05-05T01:56:47.395Z,-1.92
2023-05-05T01:57:47.380Z,-1.93
2023-05-05T01:58:47.382Z,-1.93
2023-05-05T01:59:47.533Z,-1.93
2023-05-05T02:00:47.361Z,-1.92
2023-05-05T02:01:47.344Z,-1.95
2023-05-05T02:02:47.392Z,-1.98
2023-05-05T02:03:47.319Z,-1.98
2023-05-05T02:04:47.323Z,-1.99
2023-05-05T02:05:47.348Z,-1.99
2023-05-05T02:06:47.258Z,-2.02
2023-05-05T02:07:47.288Z,-2.03
2023-05-05T02:08:47.283Z,-2.03
2023-05-05T02:09:47.273Z,-2.05
2023-05-05T02:10:47.254Z,-2.08
2023-05-05T02:11:47.307Z,-2.11
2023-05-05T02:12:47.272Z,-2.11
2023-05-05T02:13:47.304Z,-2.10
2023-05-05T02:14:47.217Z,-2.11
2023-05-05T02:15:47.183Z,-2.13
2023-05-05T02:16:47.193Z,-2.11
2023-05-05T02:17:47.268Z,-2.11
2023-05-05T02:18:47.186Z,-2.10
2023-05-05T02:19:47.133Z,-2.13
2023-05-05T02:20:47.099Z,-2.14
2023-05-05T02:21:47.112Z,-2.16
2023-05-05T02:22:47.103Z,-2.16
2023-05-05T02:23:47.102Z,-2.14
2023-05-05T02:24:47.067Z,-2.17
2023-05-05T02:25:47.063Z,-2.20
2023-05-05T02:26:47.053Z,-2.23
2023-05-05T02:27:47.044Z,-2.24
2023-05-05T02:28:47.042Z,-2.24
2023-05-05T02:29:47.056Z,-2.28
2023-05-05T02:30:47.017Z,-2.32
2023-05-05T02:31:47.101Z,-2.35
2023-05-05T02:32:47.054Z,-2.35
2023-05-05T02:33:46.981Z,-2.36
2023-05-05T02:34:46.971Z,-2.38
2023-05-05T02:35:46.999Z,-2.40
2023-05-05T02:36:46.980Z,-2.43
2023-05-05T02:37:46.956Z,-2.45
2023-05-05T02:38:46.937Z,-2.45
2023-05-05T02:39:46.937Z,-2.45
2023-05-05T02:40:46.930Z,-2.51
2023-05-05T02:41:46.971Z,-2.54
2023-05-05T02:42:46.920Z,-2.57
2023-05-05T02:43:46.897Z,-2.60
2023-05-05T02:44:46.887Z,-2.63
2023-05-05T02:45:46.873Z,-2.66
2023-05-05T02:46:46.935Z,-2.71
2023-05-05T02:47:46.957Z,-2.69
2023-05-05T02:48:46.877Z,-2.66
2023-05-05T02:49:46.841Z,-2.68
2023-05-05T02:50:46.832Z,-2.69
2023-05-05T02:51:46.818Z,-2.68
2023-05-05T02:52:46.814Z,-2.66
2023-05-05T02:53:46.832Z,-2.61
2023-05-05T02:54:46.787Z,-2.61
2023-05-05T02:55:46.776Z,-2.60
2023-05-05T02:56:46.757Z,-2.60
2023-05-05T02:57:46.754Z,-2.61
2023-05-05T02:58:46.752Z,-2.60
2023-05-05T02:59:46.762Z,-2.60
2023-05-05T03:00:46.722Z,-2.58
2023-05-05T03:01:46.766Z,-2.61
2023-05-05T03:02:46.775Z,-2.58
2023-05-05T03:03:46.844Z,-2.57
2023-05-05T03:04:46.694Z,-2.58
2023-05-05T03:05:46.697Z,-2.63
2023-05-05T03:06:46.672Z,-2.69
2023-05-05T03:07:46.661Z,-2.71
2023-05-05T03:08:46.654Z,-2.75
2023-05-05T03:09:46.636Z,-2.75
2023-05-05T03:10:46.624Z,-2.76
2023-05-05T03:11:46.654Z,-2.75
2023-05-05T03:12:46.652Z,-2.75
2023-05-05T03:13:46.596Z,-2.76
2023-05-05T03:14:46.593Z,-2.75
2023-05-05T03:15:46.588Z,-2.74
2023-05-05T03:16:46.616Z,-2.76
2023-05-05T03:17:46.633Z,-2.75
2023-05-05T03:18:46.562Z,-2.74
2023-05-05T03:19:46.544Z,-2.75
2023-05-05T03:20:46.542Z,-2.75
2023-05-05T03:21:46.536Z,-2.75
2023-05-05T03:22:46.517Z,-2.78
2023-05-05T03:23:46.547Z,-2.79
2023-05-05T03:24:46.506Z,-2.81
2023-05-05T03:25:46.491Z,-2.85
2023-05-05T03:26:46.487Z,-2.90
2023-05-05T03:27:46.481Z,-2.94
2023-05-05T03:28:46.466Z,-3.05
2023-05-05T03:29:46.476Z,-3.07
2023-05-05T03:30:46.447Z,-3.08
2023-05-05T03:31:46.478Z,-3.08
2023-05-05T03:32:46.816Z,-3.13
2023-05-05T03:33:46.412Z,-3.13
2023-05-05T03:34:46.402Z,-3.15
2023-05-05T03:35:46.409Z,-3.14
2023-05-05T03:36:46.399Z,-3.14
2023-05-05T03:37:46.364Z,-3.13
2023-05-05T03:38:46.362Z,-3.13
2023-05-05T03:39:46.351Z,-3.13
2023-05-05T03:40:46.350Z,-3.13
2023-05-05T03:41:46.362Z,-3.11
2023-05-05T03:42:46.324Z,-3.11
2023-05-05T03:43:46.303Z,-3.08
2023-05-05T03:44:46.306Z,-3.07
2023-05-05T03:45:46.311Z,-3.05
2023-05-05T03:46:46.290Z,-3.02
2023-05-05T03:47:46.308Z,-3.00
2023-05-05T03:48:46.264Z,-2.97
2023-05-05T03:49:46.249Z,-2.96
2023-05-05T03:50:46.250Z,-2.94
2023-05-05T03:51:46.244Z,-2.93
2023-05-05T03:52:46.245Z,-2.99
2023-05-05T03:53:46.262Z,-3.08
2023-05-05T03:54:46.231Z,-3.18
2023-05-05T03:55:46.209Z,-3.32
2023-05-05T03:56:46.202Z,-3.41
2023-05-05T03:57:46.193Z,-3.43
2023-05-05T03:58:46.186Z,-3.44
2023-05-05T03:59:46.193Z,-3.43
2023-05-05T04:00:46.159Z,-3.41
2023-05-05T04:01:46.149Z,-3.39
2023-05-05T04:02:46.210Z,-3.38
2023-05-05T04:03:46.229Z,-3.32
2023-05-05T04:04:46.131Z,-3.28
2023-05-05T04:05:46.179Z,-3.22
2023-05-05T04:06:46.099Z,-3.20
2023-05-05T04:07:46.238Z,-3.15
2023-05-05T04:08:46.091Z,-3.10
2023-05-05T04:09:46.067Z,-3.08
2023-05-05T04:10:46.062Z,-3.02
2023-05-05T04:11:46.075Z,-2.97
2023-05-05T04:12:46.058Z,-2.93
2023-05-05T04:13:46.044Z,-2.86
2023-05-05T04:14:46.026Z,-2.79
2023-05-05T04:15:46.036Z,-2.69
2023-05-05T04:16:46.017Z,-2.60
2023-05-05T04:17:46.091Z,-2.48
2023-05-05T04:18:45.979Z,-2.40
2023-05-05T04:19:45.977Z,-2.33
2023-05-05T04:20:45.962Z,-2.23
2023-05-05T04:21:45.950Z,-2.16
2023-05-05T04:22:45.932Z,-2.06
2023-05-05T04:23:45.958Z,-1.93
2023-05-05T04:24:45.931Z,-1.82
2023-05-05T04:25:45.917Z,-1.75
2023-05-05T04:26:45.903Z,-1.72
2023-05-05T04:27:45.891Z,-1.66
2023-05-05T04:28:45.886Z,-1.56
2023-05-05T04:29:45.915Z,-1.46
2023-05-05T04:30:45.862Z,-1.39
2023-05-05T04:31:45.914Z,-1.33
2023-05-05T04:32:45.916Z,-1.28
2023-05-05T04:33:45.831Z,-1.28
2023-05-05T04:34:45.825Z,-1.24
2023-05-05T04:35:46.168Z,-1.15
2023-05-05T04:36:45.815Z,-1.09
2023-05-05T04:37:46.713Z,-1.06
2023-05-05T04:38:46.784Z,-1.03
2023-05-05T04:39:46.682Z,-0.92
2023-05-05T04:40:45.774Z,-0.72
2023-05-05T04:41:45.787Z,-0.54
2023-05-05T04:42:45.758Z,-0.39
2023-05-05T04:43:45.747Z,-0.19
2023-05-05T04:44:45.734Z,-0.01
2023-05-05T04:45:45.846Z,0.09
2023-05-05T04:46:45.715Z,0.16
2023-05-05T04:47:45.782Z,0.07
2023-05-05T04:48:45.696Z,-0.01
2023-05-05T04:49:45.679Z,-0.13
2023-05-05T04:50:45.673Z,-0.12
2023-05-05T04:51:45.665Z,-0.04
2023-05-05T04:52:45.657Z,-0.04
2023-05-05T04:53:45.669Z,0.02
2023-05-05T04:54:45.633Z,0.13
2023-05-05T04:55:45.638Z,0.31
2023-05-05T04:56:45.616Z,0.43
2023-05-05T04:57:45.604Z,0.45
2023-05-05T04:58:45.586Z,0.39
2023-05-05T04:59:45.612Z,0.36
2023-05-05T05:00:45.571Z,0.34
2023-05-05T05:01:45.577Z,0.36
2023-05-05T05:02:45.737Z,0.46
2023-05-05T05:03:45.685Z,0.67
2023-05-05T05:04:45.534Z,0.94
2023-05-05T05:05:45.554Z,1.19
2023-05-05T05:06:45.513Z,1.34
2023-05-05T05:07:45.498Z,1.46
2023-05-05T05:08:45.485Z,1.65
2023-05-05T05:09:45.474Z,1.75
2023-05-05T05:10:45.480Z,1.90
2023-05-05T05:11:45.491Z,2.17
2023-05-05T05:12:45.539Z,2.51
2023-05-05T05:13:45.441Z,2.67
2023-05-05T05:14:45.433Z,2.91
2023-05-05T05:15:45.417Z,3.02
2023-05-05T05:16:45.494Z,3.16
2023-05-05T05:17:45.476Z,3.34
2023-05-05T05:18:45.396Z,3.53
2023-05-05T05:19:45.397Z,3.67
2023-05-05T05:20:45.384Z,3.85
2023-05-05T05:21:45.371Z,3.98
2023-05-05T05:22:45.363Z,4.10
2023-05-05T05:23:45.395Z,4.22
2023-05-05T05:24:45.353Z,4.32
2023-05-05T05:25:45.322Z,4.33
2023-05-05T05:26:45.326Z,4.32
2023-05-05T05:27:46.795Z,4.40
2023-05-05T05:28:46.355Z,4.32
2023-05-05T05:29:45.299Z,4.25
2023-05-05T05:30:45.282Z,4.33
2023-05-05T05:31:45.299Z,4.37
2023-05-05T05:32:45.338Z,4.39
2023-05-05T05:33:45.257Z,4.55
2023-05-05T05:34:45.267Z,4.67
2023-05-05T05:35:45.225Z,4.75
2023-05-05T05:36:45.230Z,4.77
2023-05-05T05:37:45.200Z,4.73
2023-05-05T05:38:45.207Z,4.79
2023-05-05T05:39:45.180Z,4.83
2023-05-05T05:40:45.205Z,4.79
2023-05-05T05:41:45.160Z,4.76
2023-05-05T05:42:45.168Z,4.77
2023-05-05T05:43:45.132Z,4.52
2023-05-05T05:44:45.130Z,4.43
2023-05-05T05:45:45.145Z,4.54
2023-05-05T05:46:45.139Z,4.62
2023-05-05T05:47:45.128Z,4.70
2023-05-05T05:48:45.081Z,4.67
2023-05-05T05:49:45.076Z,4.61
2023-05-05T05:50:45.072Z,4.47
2023-05-05T05:51:45.051Z,4.22
2023-05-05T05:52:45.070Z,4.08
2023-05-05T05:53:45.031Z,3.98
2023-05-05T05:54:45.026Z,3.75
2023-05-05T05:55:45.014Z,3.65
2023-05-05T05:56:45.013Z,3.79
2023-05-05T05:57:45.007Z,3.80
2023-05-05T05:58:45.017Z,3.86
2023-05-05T05:59:44.998Z,3.72
2023-05-05T06:00:44.984Z,3.65
2023-05-05T06:01:44.955Z,3.60
2023-05-05T06:02:45.025Z,3.58
2023-05-05T06:03:44.972Z,3.80
2023-05-05T06:04:44.960Z,4.01
2023-05-05T06:05:44.922Z,4.14
2023-05-05T06:06:44.912Z,4.24
2023-05-05T06:07:44.910Z,4.42
2023-05-05T06:08:44.889Z,4.47
2023-05-05T06:09:44.899Z,4.59
2023-05-05T06:10:44.906Z,4.61
2023-05-05T06:11:44.855Z,4.44
2023-05-05T06:12:44.884Z,4.47
2023-05-05T06:13:44.835Z,4.44
2023-05-05T06:14:44.835Z,4.51
2023-05-05T06:15:44.826Z,4.46
2023-05-05T06:16:44.816Z,4.46
2023-05-05T06:17:44.814Z,4.55
2023-05-05T06:18:44.786Z,4.67
2023-05-05T06:19:44.764Z,4.69
2023-05-05T06:20:44.755Z,4.72
2023-05-05T06:21:44.737Z,4.80
2023-05-05T06:22:44.756Z,4.89
2023-05-05T06:23:44.725Z,4.96
2023-05-05T06:24:44.717Z,5.01
2023-05-05T06:25:44.705Z,4.92
2023-05-05T06:26:44.697Z,5.01
2023-05-05T06:27:44.697Z,5.14
2023-05-05T06:28:44.713Z,5.32
2023-05-05T06:29:44.664Z,5.49
2023-05-05T06:30:44.666Z,5.66
2023-05-05T06:31:44.660Z,5.56
2023-05-05T06:32:44.660Z,5.57
2023-05-05T06:33:44.642Z,5.50
2023-05-05T06:34:44.665Z,5.63
2023-05-05T06:35:44.604Z,5.73
2023-05-05T06:36:44.642Z,5.81
2023-05-05T06:37:44.588Z,5.95
2023-05-05T06:38:44.581Z,6.04
2023-05-05T06:39:44.572Z,6.06
2023-05-05T06:40:44.582Z,5.92
2023-05-05T06:41:44.547Z,5.92
2023-05-05T06:42:44.538Z,5.86
2023-05-05T06:43:44.528Z,5.92
2023-05-05T06:44:44.520Z,5.91
2023-05-05T06:45:44.546Z,6.18
2023-05-05T06:46:44.528Z,6.46
2023-05-05T06:47:44.609Z,6.68
2023-05-05T06:48:44.477Z,6.99
2023-05-05T06:49:44.469Z,7.23
2023-05-05T06:50:44.467Z,7.15
2023-05-05T06:51:44.441Z,7.19
2023-05-05T06:52:44.469Z,7.35
2023-05-05T06:53:44.427Z,7.40
2023-05-05T06:54:44.417Z,7.69
2023-05-05T06:55:44.399Z,7.96
2023-05-05T06:56:44.387Z,8.25
2023-05-05T06:57:44.378Z,8.32
2023-05-05T06:58:44.397Z,8.45
2023-05-05T06:59:44.359Z,8.60
2023-05-05T07:00:44.385Z,8.90
2023-05-05T07:01:44.338Z,8.87
2023-05-05T07:02:44.393Z,8.35
2023-05-05T07:03:44.351Z,8.17
2023-05-05T07:04:44.358Z,8.08
2023-05-05T07:05:44.305Z,8.18
2023-05-05T07:06:44.296Z,8.26
2023-05-05T07:07:44.276Z,8.26
2023-05-05T07:08:44.277Z,8.10
2023-05-05T07:09:44.272Z,8.20
2023-05-05T07:10:44.304Z,8.47
2023-05-05T07:11:44.230Z,8.83
2023-05-05T07:12:44.266Z,9.21
2023-05-05T07:13:44.214Z,9.42
2023-05-05T07:14:44.201Z,9.24
2023-05-05T07:15:44.218Z,9.39
2023-05-05T07:16:44.293Z,9.57
2023-05-05T07:17:44.230Z,9.09
2023-05-05T07:18:44.166Z,8.72
2023-05-05T07:19:44.270Z,8.54
2023-05-05T07:20:44.146Z,8.47
2023-05-05T07:21:44.144Z,8.26
2023-05-05T07:22:44.162Z,8.04
2023-05-05T07:23:44.121Z,8.04
2023-05-05T07:24:44.117Z,8.15
2023-05-05T07:25:44.095Z,8.12
2023-05-05T07:26:44.097Z,8.21
2023-05-05T07:27:44.509Z,8.25
2023-05-05T07:28:44.093Z,8.11
2023-05-05T07:29:44.055Z,8.04
2023-05-05T07:30:44.064Z,8.26
2023-05-05T07:31:44.062Z,8.32
2023-05-05T07:32:44.178Z,8.14
2023-05-05T07:33:44.021Z,8.47
2023-05-05T07:34:44.058Z,8.54
2023-05-05T07:35:43.997Z,8.87
2023-05-05T07:36:43.991Z,9.21
2023-05-05T07:37:43.990Z,9.60
2023-05-05T07:38:43.961Z,9.66
2023-05-05T07:39:43.954Z,9.45
2023-05-05T07:40:43.960Z,9.56
2023-05-05T07:41:43.938Z,9.94
2023-05-05T07:42:43.913Z,10.40
2023-05-05T07:43:44.644Z,10.44
2023-05-05T07:44:43.900Z,9.66
2023-05-05T07:45:43.914Z,9.66
2023-05-05T07:46:43.902Z,9.86
2023-05-05T07:47:43.959Z,9.75
2023-05-05T07:48:43.861Z,9.40
2023-05-05T07:49:43.848Z,9.24
2023-05-05T07:50:43.840Z,8.72
2023-05-05T07:51:43.843Z,8.44
2023-05-05T07:52:50.047Z,8.18
2023-05-05T07:53:44.803Z,7.90
2023-05-05T07:54:43.817Z,7.74
2023-05-05T07:55:43.788Z,7.52
2023-05-05T07:56:43.784Z,7.31
2023-05-05T07:57:43.822Z,7.19
2023-05-05T07:58:43.793Z,7.08
2023-05-05T07:59:43.755Z,7.13
2023-05-05T08:00:43.770Z,7.29
2023-05-05T08:01:43.748Z,7.82
2023-05-05T08:02:43.833Z,8.44
2023-05-05T08:03:43.792Z,8.48
2023-05-05T08:04:43.808Z,8.29
2023-05-05T08:05:43.702Z,8.18
2023-05-05T08:06:43.675Z,8.26
2023-05-05T08:07:43.668Z,8.36
2023-05-05T08:08:43.656Z,8.45
2023-05-05T08:09:43.646Z,8.50
2023-05-05T08:10:43.658Z,8.57
2023-05-05T08:11:43.646Z,8.33
2023-05-05T08:12:43.644Z,7.87
2023-05-05T08:13:43.608Z,7.41
2023-05-05T08:14:43.592Z,7.16
2023-05-05T08:15:43.613Z,6.91
2023-05-05T08:16:43.597Z,6.79
2023-05-05T08:17:43.587Z,6.72
2023-05-05T08:18:43.557Z,6.73
2023-05-05T08:19:43.549Z,6.72
2023-05-05T08:20:43.551Z,6.73
2023-05-05T08:21:43.520Z,6.69
2023-05-05T08:22:43.635Z,6.68
2023-05-05T08:23:43.505Z,6.71
2023-05-05T08:24:43.488Z,6.79
2023-05-05T08:25:43.483Z,6.83
2023-05-05T08:26:43.478Z,6.87
2023-05-05T08:27:43.478Z,6.99
2023-05-05T08:28:43.476Z,7.38
2023-05-05T08:29:43.493Z,7.63
2023-05-05T08:30:43.448Z,8.21
2023-05-05T08:31:43.474Z,8.73
2023-05-05T08:32:43.454Z,9.31
2023-05-05T08:33:43.415Z,9.66
2023-05-05T08:34:43.410Z,9.91
2023-05-05T08:35:43.404Z,10.12
2023-05-05T08:36:43.376Z,10.12
2023-05-05T08:37:43.374Z,9.50
2023-05-05T08:38:43.359Z,9.31
2023-05-05T08:39:43.350Z,9.43
2023-05-05T08:40:43.373Z,9.35
2023-05-05T08:41:43.328Z,9.01
2023-05-05T08:42:43.319Z,9.12
2023-05-05T08:43:43.312Z,9.60
2023-05-05T08:44:43.295Z,10.01
2023-05-05T08:45:43.290Z,10.36
2023-05-05T08:46:43.374Z,9.94
2023-05-05T08:47:43.601Z,9.64
2023-05-05T08:48:43.252Z,9.53
2023-05-05T08:49:43.241Z,9.57
2023-05-05T08:50:43.228Z,9.68
2023-05-05T08:51:43.220Z,9.83
2023-05-05T08:52:43.281Z,9.73
2023-05-05T08:53:43.207Z,9.52
2023-05-05T08:54:43.186Z,9.76
2023-05-05T08:55:43.170Z,9.75
2023-05-05T08:56:43.151Z,9.67
2023-05-05T08:57:43.162Z,10.10
2023-05-05T08:58:43.175Z,10.58
2023-05-05T08:59:43.126Z,10.86
2023-05-05T09:00:43.224Z,11.19
2023-05-05T09:01:43.117Z,11.34
2023-05-05T09:02:43.221Z,11.09
2023-05-05T09:03:43.651Z,11.07
2023-05-05T09:04:43.111Z,11.21
2023-05-05T09:05:43.071Z,11.17
2023-05-05T09:06:43.058Z,10.94
2023-05-05T09:07:43.038Z,10.94
2023-05-05T09:08:43.088Z,11.34
2023-05-05T09:09:43.025Z,11.99
2023-05-05T09:10:43.216Z,12.37
2023-05-05T09:11:43.008Z,10.74
2023-05-05T09:12:43.037Z,10.40
2023-05-05T09:13:42.981Z,9.73
2023-05-05T09:14:42.996Z,9.56
2023-05-05T09:15:42.984Z,9.75
2023-05-05T09:16:43.028Z,10.22
2023-05-05T09:17:42.980Z,10.43
2023-05-05T09:18:42.944Z,10.22
2023-05-05T09:19:42.933Z,10.63
2023-05-05T09:20:42.911Z,10.81
2023-05-05T09:21:42.910Z,11.19
2023-05-05T09:22:43.254Z,11.35
2023-05-05T09:23:42.894Z,10.99
2023-05-05T09:24:42.879Z,10.76
2023-05-05T09:25:42.879Z,10.55
2023-05-05T09:26:42.863Z,10.25
2023-05-05T09:27:42.914Z,10.42
2023-05-05T09:28:42.869Z,10.40
2023-05-05T09:29:42.833Z,10.21
2023-05-05T09:30:42.828Z,10.78
2023-05-05T09:31:42.807Z,10.62
2023-05-05T09:32:42.878Z,10.33
2023-05-05T09:33:42.783Z,10.28
2023-05-05T09:34:42.790Z,9.91
2023-05-05T09:35:42.772Z,9.73
2023-05-05T09:36:42.748Z,9.94
2023-05-05T09:37:42.745Z,9.82
2023-05-05T09:38:42.734Z,9.73
2023-05-05T09:39:42.727Z,10.04
2023-05-05T09:40:43.201Z,10.59
2023-05-05T09:41:42.705Z,10.53
2023-05-05T09:42:42.687Z,10.39
2023-05-05T09:43:42.690Z,10.12
2023-05-05T09:44:42.679Z,10.36
2023-05-05T09:45:42.660Z,10.51
2023-05-05T09:46:42.765Z,10.43
2023-05-05T09:47:42.675Z,10.44
2023-05-05T09:48:42.642Z,10.81
2023-05-05T09:49:42.617Z,11.41
2023-05-05T09:50:42.624Z,12.04
2023-05-05T09:51:42.598Z,12.64
2023-05-05T09:52:42.612Z,13.02
2023-05-05T09:53:42.605Z,13.49
2023-05-05T09:54:42.566Z,13.15
2023-05-05T09:55:42.564Z,13.03
2023-05-05T09:56:42.547Z,13.36
2023-05-05T09:57:42.541Z,13.81
2023-05-05T09:58:42.605Z,13.95
2023-05-05T09:59:42.513Z,14.09
2023-05-05T10:00:42.510Z,14.27
2023-05-05T10:01:42.512Z,14.19
2023-05-05T10:02:42.508Z,14.31
2023-05-05T10:03:42.478Z,14.28
2023-05-05T10:04:42.516Z,14.09
2023-05-05T10:05:42.467Z,12.92
2023-05-05T10:06:42.454Z,12.97
2023-05-05T10:07:42.439Z,13.38
2023-05-05T10:08:42.441Z,13.44
2023-05-05T10:09:42.431Z,13.67
2023-05-05T10:10:42.438Z,13.30
2023-05-05T10:11:42.427Z,12.74
2023-05-05T10:12:42.447Z,12.96
2023-05-05T10:13:42.374Z,13.44
2023-05-05T10:14:42.350Z,13.94
2023-05-05T10:15:42.363Z,14.16
2023-05-05T10:16:42.658Z,13.52
2023-05-05T10:17:50.819Z,13.41
2023-05-05T10:18:43.346Z,13.61
2023-05-05T10:19:42.308Z,14.04
2023-05-05T10:20:42.301Z,14.43
2023-05-05T10:21:42.384Z,14.87
2023-05-05T10:22:42.295Z,14.98
2023-05-05T10:23:42.270Z,13.74
2023-05-05T10:24:42.242Z,12.82
2023-05-05T10:25:42.234Z,12.96
2023-05-05T10:26:42.233Z,13.29
2023-05-05T10:27:42.232Z,13.51
2023-05-05T10:28:42.240Z,13.27
2023-05-05T10:29:42.296Z,12.96
2023-05-05T10:30:42.221Z,12.88
2023-05-05T10:31:42.189Z,13.21
2023-05-05T10:33:42.294Z,13.92
2023-05-05T10:34:42.214Z,14.13
2023-05-05T10:35:42.149Z,14.12
2023-05-05T10:36:42.129Z,14.29
2023-05-05T10:37:42.126Z,14.61
2023-05-05T10:38:42.119Z,14.87
2023-05-05T10:39:42.102Z,15.26
2023-05-05T10:40:42.118Z,15.21
2023-05-05T10:41:42.091Z,15.33
2023-05-05T10:42:42.077Z,15.66
2023-05-05T10:43:42.067Z,15.23
2023-05-05T10:44:42.058Z,14.69
2023-05-05T10:45:42.107Z,14.04
2023-05-05T10:46:42.170Z,14.16
2023-05-05T10:47:42.169Z,14.47
2023-05-05T10:48:42.055Z,14.67
2023-05-05T10:49:41.995Z,14.37
2023-05-05T10:50:41.992Z,13.91
2023-05-05T10:51:41.987Z,13.95
2023-05-05T10:52:41.991Z,14.39
2023-05-05T10:53:41.970Z,14.87
2023-05-05T10:54:41.986Z,15.33
2023-05-05T10:55:41.941Z,15.70
2023-05-05T10:56:41.942Z,15.88
2023-05-05T10:57:41.914Z,15.74
2023-05-05T10:58:58.469Z,14.57
2023-05-05T10:59:42.906Z,13.79
2023-05-05T11:00:41.891Z,13.06
2023-05-05T11:01:41.879Z,13.33
2023-05-05T11:02:42.000Z,13.80
2023-05-05T11:03:41.878Z,14.29
2023-05-05T11:04:41.886Z,14.81
2023-05-05T11:05:41.831Z,15.36
2023-05-05T11:06:41.820Z,15.86
2023-05-05T11:07:41.804Z,15.45
2023-05-05T11:08:41.799Z,15.63
2023-05-05T11:09:41.795Z,15.85
2023-05-05T11:10:41.831Z,16.18
2023-05-05T11:11:41.770Z,16.33
2023-05-05T11:12:41.783Z,15.96
2023-05-05T11:13:41.744Z,15.75
2023-05-05T11:14:41.732Z,15.27
2023-05-05T11:15:41.747Z,15.36
2023-05-05T11:16:41.771Z,15.45
2023-05-05T11:17:41.741Z,15.60
2023-05-05T11:18:41.703Z,15.86
2023-05-05T11:19:41.704Z,16.09
2023-05-05T11:20:41.768Z,16.45
2023-05-05T11:21:41.679Z,16.59
2023-05-05T11:22:41.712Z,16.34
2023-05-05T11:23:41.655Z,16.06
2023-05-05T11:24:41.678Z,15.63
2023-05-05T11:25:41.636Z,14.53
2023-05-05T11:26:41.615Z,14.44
2023-05-05T11:27:41.622Z,14.84
2023-05-05T11:28:41.776Z,15.24
2023-05-05T11:29:41.600Z,15.21
2023-05-05T11:30:41.655Z,14.86
2023-05-05T11:31:41.621Z,14.87
2023-05-05T11:32:41.592Z,14.65
2023-05-05T11:33:41.544Z,15.05
2023-05-05T11:34:41.576Z,15.31
2023-05-05T11:35:41.516Z,15.38
2023-05-05T11:36:41.515Z,14.75
2023-05-05T11:37:41.492Z,14.80
2023-05-05T11:38:41.506Z,15.05
2023-05-05T11:39:41.483Z,15.48
2023-05-05T11:40:41.499Z,15.75
2023-05-05T11:41:41.452Z,15.74
2023-05-05T11:42:41.448Z,16.03
2023-05-05T11:43:41.430Z,16.48
2023-05-05T11:44:41.434Z,16.89
2023-05-05T11:45:41.418Z,17.06
2023-05-05T11:46:41.482Z,17.29
2023-05-05T11:47:41.425Z,17.53
2023-05-05T11:48:41.386Z,17.81
2023-05-05T11:49:41.431Z,17.99
2023-05-05T11:50:41.364Z,18.17
2023-05-05T11:51:41.357Z,18.04
2023-05-05T11:52:41.380Z,17.63
2023-05-05T11:53:41.339Z,16.09
2023-05-05T11:54:41.327Z,14.20
2023-05-05T11:55:41.322Z,13.30
2023-05-05T11:56:41.312Z,13.04
2023-05-05T11:57:41.299Z,13.47
2023-05-05T11:58:41.311Z,13.96
2023-05-05T11:59:41.269Z,14.24
2023-05-05T12:00:41.277Z,14.06
2023-05-05T12:01:41.253Z,14.13
2023-05-05T12:02:41.347Z,14.60
2023-05-05T12:03:41.427Z,15.02
2023-05-05T12:04:41.272Z,15.28
2023-05-05T12:05:41.222Z,15.33
2023-05-05T12:06:41.211Z,15.24
2023-05-05T12:07:41.194Z,15.39
2023-05-05T12:08:41.183Z,15.66
2023-05-05T12:09:41.175Z,16.00
2023-05-05T12:10:41.250Z,16.35
2023-05-05T12:11:41.163Z,16.68
2023-05-05T12:12:41.178Z,16.86
2023-05-05T12:13:41.134Z,16.56
2023-05-05T12:14:41.115Z,16.44
2023-05-05T12:15:41.106Z,16.67
2023-05-05T12:16:41.278Z,16.81
2023-05-05T12:17:41.116Z,16.93
2023-05-05T12:18:41.092Z,16.15
2023-05-05T12:19:41.070Z,15.23
2023-05-05T12:20:41.066Z,15.28
2023-05-05T12:21:41.070Z,15.57
2023-05-05T12:22:41.132Z,15.97
2023-05-05T12:23:41.016Z,15.97
2023-05-05T12:24:41.023Z,15.82
2023-05-05T12:25:41.000Z,16.07
2023-05-05T12:26:40.998Z,15.82
2023-05-05T12:27:40.976Z,15.74
2023-05-05T12:28:41.002Z,15.82
2023-05-05T12:29:40.969Z,16.06
2023-05-05T12:30:40.968Z,16.25
2023-05-05T12:31:41.005Z,16.40
2023-05-05T12:32:40.961Z,16.73
2023-05-05T12:33:40.929Z,16.98
2023-05-05T12:34:40.946Z,17.32
2023-05-05T12:35:40.901Z,17.70
2023-05-05T12:36:40.908Z,18.02
2023-05-05T12:37:40.886Z,18.27
2023-05-05T12:38:40.875Z,18.43
2023-05-05T12:39:40.882Z,18.64
2023-05-05T12:40:40.945Z,18.64
2023-05-05T12:41:40.847Z,18.67
2023-05-05T12:42:40.843Z,18.54
2023-05-05T12:43:40.827Z,18.50
2023-05-05T12:44:40.824Z,18.42
2023-05-05T12:45:40.832Z,18.29
2023-05-05T12:46:40.824Z,18.31
2023-05-05T12:47:40.831Z,18.40
2023-05-05T12:48:40.775Z,18.07
2023-05-05T12:49:40.792Z,17.33
2023-05-05T12:50:40.756Z,16.96
2023-05-05T12:51:40.753Z,16.88
2023-05-05T12:52:40.787Z,17.04
2023-05-05T12:53:40.722Z,17.29
2023-05-05T12:54:40.714Z,17.53
2023-05-05T12:55:40.706Z,17.62
2023-05-05T12:56:40.752Z,17.54
2023-05-05T12:57:40.676Z,17.11
2023-05-05T12:58:40.688Z,16.71
2023-05-05T12:59:40.654Z,15.82
2023-05-05T13:00:40.643Z,15.60
2023-05-05T13:01:40.671Z,15.56